Comet — WDE9884 — position and weather

sailwx.info

Track history (hours):
 
Tides and Currents Weather Stations Pressure Air Temp Water Temp Dewpoint Dewpoint Depression Visibility Wind Speed Wind Dir Waves Ship Positions

Comet

Owner: Tug Comet, Tampa, FL. More information available from US FCC via Universal Licensing System and Coast Guard Vessel Documentation Center.

Last reported at 2017-Sep-24 13:45 UTC. Time now 2017-Sep-25 00:39 UTC.
Position N 36°58' W 076°22'.

Length 34 m; draft 5.2 m.

Type: Tug. MMSI: 367422430.

Date/timePositionNaut miles runAvg speedWind from/ knotsBaromVisibWave heightAir tempDewpointWater temp
2017-Sep-24 13:45N 36°58' W 076°22'0 0.0
2017-Sep-24 13:25N 36°58' W 076°22'0 0.1
2017-Sep-24 11:01N 36°58' W 076°22'0 0.1
2017-Sep-24 10:54N 36°58' W 076°22'0 0.0
2017-Sep-24 10:30N 36°58' W 076°22'0 0.0
2017-Sep-24 09:57N 36°58' W 076°22'  
2017-Sep-21 16:36N 39°34' W 074°05'1 6.8
2017-Sep-21 16:28N 39°35' W 074°04'3 6.9
2017-Sep-21 15:59N 39°38' W 074°03'3 7.0
2017-Sep-21 15:29N 39°41' W 074°01'4 7.0
2017-Sep-21 14:57N 39°44' W 073°59'46 6.3
2017-Sep-21 07:36N 40°31' W 073°59'1 6.2
2017-Sep-21 07:26N 40°31' W 073°60'3 6.3
2017-Sep-21 06:59N 40°33' W 074°02'3 7.1
2017-Sep-21 06:30N 40°37' W 074°03'3 6.4
2017-Sep-21 06:00N 40°40' W 074°03'3 6.4
2017-Sep-21 05:30N 40°43' W 074°02'3 6.1
2017-Sep-21 05:00N 40°46' W 074°01'2 4.8
2017-Sep-21 04:30N 40°48' W 073°59'0 0.5
2017-Sep-21 04:00N 40°48' W 073°59'0 0.1
2017-Sep-21 03:30N 40°48' W 073°59'0 0.1
2017-Sep-21 03:00N 40°48' W 073°59'0 0.0
2017-Sep-21 02:30N 40°48' W 073°59'0 0.0
2017-Sep-21 02:00N 40°48' W 073°59'0 0.0
2017-Sep-21 01:30N 40°48' W 073°59'0 0.0
2017-Sep-21 01:00N 40°48' W 073°59'0 0.0
2017-Sep-21 00:30N 40°48' W 073°59'0 0.0
2017-Sep-21 00:00N 40°48' W 073°59'0 0.0
2017-Sep-20 23:30N 40°48' W 073°59'0 0.3
2017-Sep-20 23:00N 40°48' W 073°59'0 0.1
2017-Sep-20 22:30N 40°48' W 073°59'0 0.0
2017-Sep-20 22:00N 40°48' W 073°59'0 0.0
2017-Sep-20 21:30N 40°48' W 073°59'0 0.0
2017-Sep-20 21:00N 40°48' W 073°59'0 0.0
2017-Sep-20 20:30N 40°48' W 073°59'0 0.0
2017-Sep-20 20:00N 40°48' W 073°59'0 0.0
2017-Sep-20 19:30N 40°48' W 073°59'0 0.0
2017-Sep-20 19:00N 40°48' W 073°59'0 0.0
2017-Sep-20 18:30N 40°48' W 073°59'0 0.0
2017-Sep-20 18:00N 40°48' W 073°59'0 0.0
2017-Sep-20 17:30N 40°48' W 073°59'0 0.0
2017-Sep-20 17:00N 40°48' W 073°59'0 0.0
2017-Sep-20 16:30N 40°48' W 073°59'0 0.2
2017-Sep-20 16:00N 40°48' W 073°59'0 0.2
2017-Sep-20 15:30N 40°48' W 073°59'0 0.1
2017-Sep-20 15:00N 40°48' W 073°59'0 0.0
2017-Sep-20 13:59N 40°48' W 073°59'0 0.0
2017-Sep-20 13:30N 40°48' W 073°59'0 0.0
2017-Sep-20 13:00N 40°48' W 073°59'0 0.0
2017-Sep-20 12:29N 40°48' W 073°59'0 0.0
2017-Sep-20 12:00N 40°48' W 073°59'0 0.0
2017-Sep-20 11:30N 40°48' W 073°59'0 0.3
2017-Sep-20 11:00N 40°48' W 073°59'0 0.2
2017-Sep-20 10:30N 40°48' W 073°59'0 0.0
2017-Sep-20 10:00N 40°48' W 073°59'0 0.0
2017-Sep-20 09:30N 40°48' W 073°59'0 0.0
2017-Sep-20 09:00N 40°48' W 073°59'0 0.0
2017-Sep-20 08:30N 40°48' W 073°59'0 0.0
2017-Sep-20 08:00N 40°48' W 073°59'0 0.0
2017-Sep-20 07:29N 40°48' W 073°59'0 0.0
2017-Sep-20 07:00N 40°48' W 073°59'0 0.0
2017-Sep-20 06:30N 40°48' W 073°59'0 0.0
2017-Sep-20 06:00N 40°48' W 073°59'0 0.0
2017-Sep-20 05:30N 40°48' W 073°59'0 0.0
2017-Sep-20 05:00N 40°48' W 073°59'0 0.0
2017-Sep-20 04:29N 40°48' W 073°59'0 0.1
2017-Sep-20 04:00N 40°48' W 073°59'0 0.3
2017-Sep-20 03:30N 40°48' W 073°59'0 0.1
2017-Sep-20 03:00N 40°48' W 073°59'0 0.2
2017-Sep-20 02:30N 40°48' W 073°59'0 0.0
2017-Sep-20 02:00N 40°48' W 073°59'0 0.0
2017-Sep-20 01:30N 40°48' W 073°59'0 0.0
2017-Sep-20 01:00N 40°48' W 073°59'0 0.0
2017-Sep-20 00:30N 40°48' W 073°59'0 0.0
2017-Sep-19 23:59N 40°48' W 073°59'0 0.0
2017-Sep-19 23:30N 40°48' W 073°59'0 0.0
2017-Sep-19 23:00N 40°48' W 073°59'0 0.2
2017-Sep-19 22:30N 40°48' W 073°59'0 0.3
2017-Sep-19 22:00N 40°48' W 073°59'0 0.0
2017-Sep-19 21:30N 40°48' W 073°59'0 0.0
2017-Sep-19 21:00N 40°48' W 073°59'0 0.0
2017-Sep-19 20:30N 40°48' W 073°59'0 0.0
2017-Sep-19 20:00N 40°48' W 073°59'0 0.0
2017-Sep-19 19:30N 40°48' W 073°59'0 0.0
2017-Sep-19 19:00N 40°48' W 073°59'0 0.0
2017-Sep-19 18:30N 40°48' W 073°59'0 0.0
2017-Sep-19 18:00N 40°48' W 073°59'0 0.0
2017-Sep-19 17:30N 40°48' W 073°59'0 0.0
2017-Sep-19 17:00N 40°48' W 073°59'0 0.0
2017-Sep-19 16:30N 40°48' W 073°59'0 0.0
2017-Sep-19 16:00N 40°48' W 073°59'0 0.1
2017-Sep-19 15:30N 40°48' W 073°59'0 0.3
2017-Sep-19 15:00N 40°48' W 073°59'0 0.1
2017-Sep-19 14:29N 40°48' W 073°59'0 0.0
2017-Sep-19 14:00N 40°48' W 073°59'0 0.0
2017-Sep-19 13:30N 40°48' W 073°59'0 0.0
2017-Sep-19 13:00N 40°48' W 073°59'0 0.0
2017-Sep-19 12:30N 40°48' W 073°59'0 0.0
2017-Sep-19 12:00N 40°48' W 073°59'0 0.0
2017-Sep-19 11:30N 40°48' W 073°59'0 0.0
2017-Sep-19 11:00N 40°48' W 073°59'0 0.0
2017-Sep-19 10:30N 40°48' W 073°59'0 0.3
2017-Sep-19 10:00N 40°48' W 073°59'0 0.1
2017-Sep-19 09:30N 40°48' W 073°59'0 0.0
2017-Sep-19 09:00N 40°48' W 073°59'0 0.0
2017-Sep-19 08:30N 40°48' W 073°59'0 0.0
2017-Sep-19 08:00N 40°48' W 073°59'0 0.0
2017-Sep-19 07:30N 40°48' W 073°59'0 0.0
2017-Sep-19 07:00N 40°48' W 073°59'0 0.0
2017-Sep-19 06:30N 40°48' W 073°59'0 0.0
2017-Sep-19 06:00N 40°48' W 073°59'0 0.0
2017-Sep-19 05:30N 40°48' W 073°59'0 0.0
2017-Sep-19 05:00N 40°48' W 073°59'0 0.0
2017-Sep-19 04:30N 40°48' W 073°59'0 0.0
2017-Sep-19 04:00N 40°48' W 073°59'0 0.1
2017-Sep-19 03:30N 40°48' W 073°59'0 0.3
2017-Sep-19 03:00N 40°48' W 073°59'0 0.1
2017-Sep-19 02:30N 40°48' W 073°59'0 0.0
2017-Sep-19 02:00N 40°48' W 073°59'0 0.0
2017-Sep-19 01:30N 40°48' W 073°59'0 0.0
2017-Sep-19 01:00N 40°48' W 073°59'0 0.0
2017-Sep-19 00:30N 40°48' W 073°59'0 0.0
2017-Sep-19 00:00N 40°48' W 073°59'0 0.0
2017-Sep-18 23:30N 40°48' W 073°59'0 0.0
2017-Sep-18 23:00N 40°48' W 073°59'0 0.0
2017-Sep-18 22:30N 40°48' W 073°59'0 0.0
2017-Sep-18 22:00N 40°48' W 073°59'0 0.2
2017-Sep-18 21:00N 40°48' W 073°59'0 0.1
2017-Sep-18 20:30N 40°48' W 073°59'0 0.0
2017-Sep-18 20:00N 40°48' W 073°59'0 0.0
2017-Sep-18 19:30N 40°48' W 073°59'0 0.0
2017-Sep-18 19:00N 40°48' W 073°59'0 0.0
2017-Sep-18 18:30N 40°48' W 073°59'0 0.0
2017-Sep-18 18:00N 40°48' W 073°59'0 0.0
2017-Sep-18 17:30N 40°48' W 073°59'0 0.0
2017-Sep-18 17:00N 40°48' W 073°59'0 0.0
2017-Sep-18 16:30N 40°48' W 073°59'0 0.0
2017-Sep-18 16:00N 40°48' W 073°59'0 0.0
2017-Sep-18 15:30N 40°48' W 073°59'0 0.0
2017-Sep-18 15:00N 40°48' W 073°59'0 0.3
2017-Sep-18 14:30N 40°48' W 073°59'0 0.2
2017-Sep-18 14:00N 40°48' W 073°59'0 0.1
2017-Sep-18 13:30N 40°48' W 073°59'0 0.0
2017-Sep-18 13:00N 40°48' W 073°59'0 0.0
2017-Sep-18 12:30N 40°48' W 073°59'0 0.0
2017-Sep-18 12:00N 40°48' W 073°59'0 0.0
2017-Sep-18 11:30N 40°48' W 073°59'0 0.1
2017-Sep-18 11:00N 40°48' W 073°59'1 1.1
2017-Sep-18 10:30N 40°47' W 073°59'4 7.1
2017-Sep-18 10:00N 40°44' W 074°01'4 8.0
2017-Sep-18 09:30N 40°40' W 074°03'3 5.8
2017-Sep-18 08:59N 40°39' W 074°06'3 5.3
2017-Sep-18 08:30N 40°39' W 074°09'3 4.9
2017-Sep-18 07:59N 40°37' W 074°12'1 2.6
2017-Sep-18 07:30N 40°36' W 074°12'0 0.4
2017-Sep-18 06:27N 40°36' W 074°12'2 2.0
2017-Sep-18 05:40N 40°38' W 074°12'0 0.0
2017-Sep-18 05:21N 40°38' W 074°12'0 0.0
2017-Sep-18 04:53N 40°38' W 074°12'0 0.0
2017-Sep-18 04:29N 40°38' W 074°12'0 0.0
2017-Sep-18 03:52N 40°38' W 074°12'0 0.0
2017-Sep-18 03:30N 40°38' W 074°12'0 0.0
2017-Sep-18 02:51N 40°38' W 074°12'0 0.0
2017-Sep-18 02:30N 40°38' W 074°12'0 0.0
2017-Sep-18 02:00N 40°38' W 074°12'0 0.0
2017-Sep-18 01:29N 40°38' W 074°12'0 0.0
2017-Sep-18 01:00N 40°38' W 074°12'0 0.0
2017-Sep-18 00:25N 40°38' W 074°12'0 0.0
2017-Sep-18 00:00N 40°38' W 074°12'0 0.0
2017-Sep-17 23:29N 40°38' W 074°12'0 0.0
2017-Sep-17 18:35N 40°38' W 074°12'0 0.1
2017-Sep-17 18:30N 40°38' W 074°12'0 0.0
2017-Sep-17 17:59N 40°38' W 074°12'1 1.1
2017-Sep-17 17:30N 40°38' W 074°12'0 1.0
2017-Sep-17 17:00N 40°38' W 074°12'2 0.2
2017-Sep-17 07:28N 40°36' W 074°12'2 4.7
2017-Sep-17 06:59N 40°38' W 074°12'4 7.9
2017-Sep-17 06:30N 40°39' W 074°07'4 8.8
2017-Sep-17 06:00N 40°41' W 074°02'612.4
2017-Sep-17 05:30N 40°47' W 073°60'8 0.2
2017-Sep-15 01:51N 40°55' W 073°55'5 5.5
2017-Sep-15 01:00N 40°51' W 073°57'3 5.8
2017-Sep-15 00:29N 40°48' W 073°59'3 6.4
2017-Sep-15 00:00N 40°45' W 074°01'3 6.8
2017-Sep-14 23:30N 40°42' W 074°02'3 6.7
2017-Sep-14 23:00N 40°39' W 074°04'4 8.1
2017-Sep-14 22:29N 40°39' W 074°09'2 5.1
2017-Sep-14 22:00N 40°38' W 074°12'0 0.5
2017-Sep-14 21:29N 40°38' W 074°12'1 3.0
2017-Sep-14 21:00N 40°39' W 074°11'4 7.8
2017-Sep-14 20:30N 40°39' W 074°06'0 0.0
2017-Sep-14 20:00N 40°39' W 074°06'0 0.0
2017-Sep-14 19:30N 40°39' W 074°06'0 0.0
2017-Sep-14 19:00N 40°39' W 074°06'0 0.0
2017-Sep-14 18:30N 40°39' W 074°06'0 0.0
2017-Sep-14 18:00N 40°39' W 074°06'0 0.0
2017-Sep-14 17:30N 40°39' W 074°06'0 0.0
2017-Sep-14 17:00N 40°39' W 074°06'0 0.0
2017-Sep-14 16:30N 40°39' W 074°06'0 0.0
2017-Sep-14 16:00N 40°39' W 074°06'0 0.0
2017-Sep-14 15:30N 40°39' W 074°06'0 0.0
2017-Sep-14 15:00N 40°39' W 074°06'0 0.0
2017-Sep-14 14:30N 40°39' W 074°06'0 0.0
2017-Sep-14 14:00N 40°39' W 074°06'  
Track history (hours):
 
Tides and Currents Weather Stations Pressure Air Temp Water Temp Dewpoint Dewpoint Depression Visibility Wind Speed Wind Dir Waves Ship Positions

Comet

Owner: Tug Comet, Tampa, FL. More information available from US FCC via Universal Licensing System and Coast Guard Vessel Documentation Center.

Last reported at 2017-Sep-24 13:45 UTC. Time now 2017-Sep-25 00:39 UTC.
Position N 36°58' W 076°22'.

Length 34 m; draft 5.2 m.

Type: Tug. MMSI: 367422430.

Date/timePositionNaut miles runAvg speedWind from/ knotsBaromVisibWave heightAir tempDewpointWater temp
2017-Sep-24 13:45N 36°58' W 076°22'0 0.0
2017-Sep-24 13:25N 36°58' W 076°22'0 0.1
2017-Sep-24 11:01N 36°58' W 076°22'0 0.1
2017-Sep-24 10:54N 36°58' W 076°22'0 0.0
2017-Sep-24 10:30N 36°58' W 076°22'0 0.0
2017-Sep-24 09:57N 36°58' W 076°22'  
2017-Sep-21 16:36N 39°34' W 074°05'1 6.8
2017-Sep-21 16:28N 39°35' W 074°04'3 6.9
2017-Sep-21 15:59N 39°38' W 074°03'3 7.0
2017-Sep-21 15:29N 39°41' W 074°01'4 7.0
2017-Sep-21 14:57N 39°44' W 073°59'46 6.3
2017-Sep-21 07:36N 40°31' W 073°59'1 6.2
2017-Sep-21 07:26N 40°31' W 073°60'3 6.3
2017-Sep-21 06:59N 40°33' W 074°02'3 7.1
2017-Sep-21 06:30N 40°37' W 074°03'3 6.4
2017-Sep-21 06:00N 40°40' W 074°03'3 6.4
2017-Sep-21 05:30N 40°43' W 074°02'3 6.1
2017-Sep-21 05:00N 40°46' W 074°01'2 4.8
2017-Sep-21 04:30N 40°48' W 073°59'0 0.5
2017-Sep-21 04:00N 40°48' W 073°59'0 0.1
2017-Sep-21 03:30N 40°48' W 073°59'0 0.1
2017-Sep-21 03:00N 40°48' W 073°59'0 0.0
2017-Sep-21 02:30N 40°48' W 073°59'0 0.0
2017-Sep-21 02:00N 40°48' W 073°59'0 0.0
2017-Sep-21 01:30N 40°48' W 073°59'0 0.0
2017-Sep-21 01:00N 40°48' W 073°59'0 0.0
2017-Sep-21 00:30N 40°48' W 073°59'0 0.0
2017-Sep-21 00:00N 40°48' W 073°59'0 0.0
2017-Sep-20 23:30N 40°48' W 073°59'0 0.3
2017-Sep-20 23:00N 40°48' W 073°59'0 0.1
2017-Sep-20 22:30N 40°48' W 073°59'0 0.0
2017-Sep-20 22:00N 40°48' W 073°59'0 0.0
2017-Sep-20 21:30N 40°48' W 073°59'0 0.0
2017-Sep-20 21:00N 40°48' W 073°59'0 0.0
2017-Sep-20 20:30N 40°48' W 073°59'0 0.0
2017-Sep-20 20:00N 40°48' W 073°59'0 0.0
2017-Sep-20 19:30N 40°48' W 073°59'0 0.0
2017-Sep-20 19:00N 40°48' W 073°59'0 0.0
2017-Sep-20 18:30N 40°48' W 073°59'0 0.0
2017-Sep-20 18:00N 40°48' W 073°59'0 0.0
2017-Sep-20 17:30N 40°48' W 073°59'0 0.0
2017-Sep-20 17:00N 40°48' W 073°59'0 0.0
2017-Sep-20 16:30N 40°48' W 073°59'0 0.2
2017-Sep-20 16:00N 40°48' W 073°59'0 0.2
2017-Sep-20 15:30N 40°48' W 073°59'0 0.1
2017-Sep-20 15:00N 40°48' W 073°59'0 0.0
2017-Sep-20 13:59N 40°48' W 073°59'0 0.0
2017-Sep-20 13:30N 40°48' W 073°59'0 0.0
2017-Sep-20 13:00N 40°48' W 073°59'0 0.0
2017-Sep-20 12:29N 40°48' W 073°59'0 0.0
2017-Sep-20 12:00N 40°48' W 073°59'0 0.0
2017-Sep-20 11:30N 40°48' W 073°59'0 0.3
2017-Sep-20 11:00N 40°48' W 073°59'0 0.2
2017-Sep-20 10:30N 40°48' W 073°59'0 0.0
2017-Sep-20 10:00N 40°48' W 073°59'0 0.0
2017-Sep-20 09:30N 40°48' W 073°59'0 0.0
2017-Sep-20 09:00N 40°48' W 073°59'0 0.0
2017-Sep-20 08:30N 40°48' W 073°59'0 0.0
2017-Sep-20 08:00N 40°48' W 073°59'0 0.0
2017-Sep-20 07:29N 40°48' W 073°59'0 0.0
2017-Sep-20 07:00N 40°48' W 073°59'0 0.0
2017-Sep-20 06:30N 40°48' W 073°59'0 0.0
2017-Sep-20 06:00N 40°48' W 073°59'0 0.0
2017-Sep-20 05:30N 40°48' W 073°59'0 0.0
2017-Sep-20 05:00N 40°48' W 073°59'0 0.0
2017-Sep-20 04:29N 40°48' W 073°59'0 0.1
2017-Sep-20 04:00N 40°48' W 073°59'0 0.3
2017-Sep-20 03:30N 40°48' W 073°59'0 0.1
2017-Sep-20 03:00N 40°48' W 073°59'0 0.2
2017-Sep-20 02:30N 40°48' W 073°59'0 0.0
2017-Sep-20 02:00N 40°48' W 073°59'0 0.0
2017-Sep-20 01:30N 40°48' W 073°59'0 0.0
2017-Sep-20 01:00N 40°48' W 073°59'0 0.0
2017-Sep-20 00:30N 40°48' W 073°59'0 0.0
2017-Sep-19 23:59N 40°48' W 073°59'0 0.0
2017-Sep-19 23:30N 40°48' W 073°59'0 0.0
2017-Sep-19 23:00N 40°48' W 073°59'0 0.2
2017-Sep-19 22:30N 40°48' W 073°59'0 0.3
2017-Sep-19 22:00N 40°48' W 073°59'0 0.0
2017-Sep-19 21:30N 40°48' W 073°59'0 0.0
2017-Sep-19 21:00N 40°48' W 073°59'0 0.0
2017-Sep-19 20:30N 40°48' W 073°59'0 0.0
2017-Sep-19 20:00N 40°48' W 073°59'0 0.0
2017-Sep-19 19:30N 40°48' W 073°59'0 0.0
2017-Sep-19 19:00N 40°48' W 073°59'0 0.0
2017-Sep-19 18:30N 40°48' W 073°59'0 0.0
2017-Sep-19 18:00N 40°48' W 073°59'0 0.0
2017-Sep-19 17:30N 40°48' W 073°59'0 0.0
2017-Sep-19 17:00N 40°48' W 073°59'0 0.0
2017-Sep-19 16:30N 40°48' W 073°59'0 0.0
2017-Sep-19 16:00N 40°48' W 073°59'0 0.1
2017-Sep-19 15:30N 40°48' W 073°59'0 0.3
2017-Sep-19 15:00N 40°48' W 073°59'0 0.1
2017-Sep-19 14:29N 40°48' W 073°59'0 0.0
2017-Sep-19 14:00N 40°48' W 073°59'0 0.0
2017-Sep-19 13:30N 40°48' W 073°59'0 0.0
2017-Sep-19 13:00N 40°48' W 073°59'0 0.0
2017-Sep-19 12:30N 40°48' W 073°59'0 0.0
2017-Sep-19 12:00N 40°48' W 073°59'0 0.0
2017-Sep-19 11:30N 40°48' W 073°59'0 0.0
2017-Sep-19 11:00N 40°48' W 073°59'0 0.0
2017-Sep-19 10:30N 40°48' W 073°59'0 0.3
2017-Sep-19 10:00N 40°48' W 073°59'0 0.1
2017-Sep-19 09:30N 40°48' W 073°59'0 0.0
2017-Sep-19 09:00N 40°48' W 073°59'0 0.0
2017-Sep-19 08:30N 40°48' W 073°59'0 0.0
2017-Sep-19 08:00N 40°48' W 073°59'0 0.0
2017-Sep-19 07:30N 40°48' W 073°59'0 0.0
2017-Sep-19 07:00N 40°48' W 073°59'0 0.0
2017-Sep-19 06:30N 40°48' W 073°59'0 0.0
2017-Sep-19 06:00N 40°48' W 073°59'0 0.0
2017-Sep-19 05:30N 40°48' W 073°59'0 0.0
2017-Sep-19 05:00N 40°48' W 073°59'0 0.0
2017-Sep-19 04:30N 40°48' W 073°59'0 0.0
2017-Sep-19 04:00N 40°48' W 073°59'0 0.1
2017-Sep-19 03:30N 40°48' W 073°59'0 0.3
2017-Sep-19 03:00N 40°48' W 073°59'0 0.1
2017-Sep-19 02:30N 40°48' W 073°59'0 0.0
2017-Sep-19 02:00N 40°48' W 073°59'0 0.0
2017-Sep-19 01:30N 40°48' W 073°59'0 0.0
2017-Sep-19 01:00N 40°48' W 073°59'0 0.0
2017-Sep-19 00:30N 40°48' W 073°59'0 0.0
2017-Sep-19 00:00N 40°48' W 073°59'0 0.0
2017-Sep-18 23:30N 40°48' W 073°59'0 0.0
2017-Sep-18 23:00N 40°48' W 073°59'0 0.0
2017-Sep-18 22:30N 40°48' W 073°59'0 0.0
2017-Sep-18 22:00N 40°48' W 073°59'0 0.2
2017-Sep-18 21:00N 40°48' W 073°59'0 0.1
2017-Sep-18 20:30N 40°48' W 073°59'0 0.0
2017-Sep-18 20:00N 40°48' W 073°59'0 0.0
2017-Sep-18 19:30N 40°48' W 073°59'0 0.0
2017-Sep-18 19:00N 40°48' W 073°59'0 0.0
2017-Sep-18 18:30N 40°48' W 073°59'0 0.0
2017-Sep-18 18:00N 40°48' W 073°59'0 0.0
2017-Sep-18 17:30N 40°48' W 073°59'0 0.0
2017-Sep-18 17:00N 40°48' W 073°59'0 0.0
2017-Sep-18 16:30N 40°48' W 073°59'0 0.0
2017-Sep-18 16:00N 40°48' W 073°59'0 0.0
2017-Sep-18 15:30N 40°48' W 073°59'0 0.0
2017-Sep-18 15:00N 40°48' W 073°59'0 0.3
2017-Sep-18 14:30N 40°48' W 073°59'0 0.2
2017-Sep-18 14:00N 40°48' W 073°59'0 0.1
2017-Sep-18 13:30N 40°48' W 073°59'0 0.0
2017-Sep-18 13:00N 40°48' W 073°59'0 0.0
2017-Sep-18 12:30N 40°48' W 073°59'0 0.0
2017-Sep-18 12:00N 40°48' W 073°59'0 0.0
2017-Sep-18 11:30N 40°48' W 073°59'0 0.1
2017-Sep-18 11:00N 40°48' W 073°59'1 1.1
2017-Sep-18 10:30N 40°47' W 073°59'4 7.1
2017-Sep-18 10:00N 40°44' W 074°01'4 8.0
2017-Sep-18 09:30N 40°40' W 074°03'3 5.8
2017-Sep-18 08:59N 40°39' W 074°06'3 5.3
2017-Sep-18 08:30N 40°39' W 074°09'3 4.9
2017-Sep-18 07:59N 40°37' W 074°12'1 2.6
2017-Sep-18 07:30N 40°36' W 074°12'0 0.4
2017-Sep-18 06:27N 40°36' W 074°12'2 2.0
2017-Sep-18 05:40N 40°38' W 074°12'0 0.0
2017-Sep-18 05:21N 40°38' W 074°12'0 0.0
2017-Sep-18 04:53N 40°38' W 074°12'0 0.0
2017-Sep-18 04:29N 40°38' W 074°12'0 0.0
2017-Sep-18 03:52N 40°38' W 074°12'0 0.0
2017-Sep-18 03:30N 40°38' W 074°12'0 0.0
2017-Sep-18 02:51N 40°38' W 074°12'0 0.0
2017-Sep-18 02:30N 40°38' W 074°12'0 0.0
2017-Sep-18 02:00N 40°38' W 074°12'0 0.0
2017-Sep-18 01:29N 40°38' W 074°12'0 0.0
2017-Sep-18 01:00N 40°38' W 074°12'0 0.0
2017-Sep-18 00:25N 40°38' W 074°12'0 0.0
2017-Sep-18 00:00N 40°38' W 074°12'0 0.0
2017-Sep-17 23:29N 40°38' W 074°12'0 0.0
2017-Sep-17 18:35N 40°38' W 074°12'0 0.1
2017-Sep-17 18:30N 40°38' W 074°12'0 0.0
2017-Sep-17 17:59N 40°38' W 074°12'1 1.1
2017-Sep-17 17:30N 40°38' W 074°12'0 1.0
2017-Sep-17 17:00N 40°38' W 074°12'2 0.2
2017-Sep-17 07:28N 40°36' W 074°12'2 4.7
2017-Sep-17 06:59N 40°38' W 074°12'4 7.9
2017-Sep-17 06:30N 40°39' W 074°07'4 8.8
2017-Sep-17 06:00N 40°41' W 074°02'612.4
2017-Sep-17 05:30N 40°47' W 073°60'8 0.2
2017-Sep-15 01:51N 40°55' W 073°55'5 5.5
2017-Sep-15 01:00N 40°51' W 073°57'3 5.8
2017-Sep-15 00:29N 40°48' W 073°59'3 6.4
2017-Sep-15 00:00N 40°45' W 074°01'3 6.8
2017-Sep-14 23:30N 40°42' W 074°02'3 6.7
2017-Sep-14 23:00N 40°39' W 074°04'4 8.1
2017-Sep-14 22:29N 40°39' W 074°09'2 5.1
2017-Sep-14 22:00N 40°38' W 074°12'0 0.5
2017-Sep-14 21:29N 40°38' W 074°12'1 3.0
2017-Sep-14 21:00N 40°39' W 074°11'4 7.8
2017-Sep-14 20:30N 40°39' W 074°06'0 0.0
2017-Sep-14 20:00N 40°39' W 074°06'0 0.0
2017-Sep-14 19:30N 40°39' W 074°06'0 0.0
2017-Sep-14 19:00N 40°39' W 074°06'0 0.0
2017-Sep-14 18:30N 40°39' W 074°06'0 0.0
2017-Sep-14 18:00N 40°39' W 074°06'0 0.0
2017-Sep-14 17:30N 40°39' W 074°06'0 0.0
2017-Sep-14 17:00N 40°39' W 074°06'0 0.0
2017-Sep-14 16:30N 40°39' W 074°06'0 0.0
2017-Sep-14 16:00N 40°39' W 074°06'0 0.0
2017-Sep-14 15:30N 40°39' W 074°06'0 0.0
2017-Sep-14 15:00N 40°39' W 074°06'0 0.0
2017-Sep-14 14:30N 40°39' W 074°06'0 0.0
2017-Sep-14 14:00N 40°39' W 074°06'  

Dump ship's entire track history